Time;durP1;ratioP1;P1;durP2;ratioP2;P2;SDS_P1;SDS_P2;PMS_P1;PMS_P2;Temp;Humidity;BMP_temperature;BMP_pressure;BME280_temperature;BME280_humidity;BME280_pressure;Samples;Min_cycle;Max_cycle;Signal;HPM_P1;HPM_P2
2023/07/31 00:00:04;;;;;;;9.43;3.72;;;18.30;99.90;;;;;;5010391;28;20065;-51
2023/07/31 00:02:50;;;;;;;8.07;3.88;;;18.20;99.90;;;;;;5010249;28;20507;-53
2023/07/31 00:05:36;;;;;;;8.68;3.85;;;18.20;99.90;;;;;;5011627;28;20026;-54
2023/07/31 00:08:22;;;;;;;6.13;3.65;;;18.30;99.90;;;;;;5003042;28;20038;-52
2023/07/31 00:11:08;;;;;;;7.70;3.50;;;18.30;99.90;;;;;;5013321;28;20033;-50
2023/07/31 00:13:54;;;;;;;5.13;3.17;;;18.20;99.90;;;;;;5014723;28;20108;-52
2023/07/31 00:16:40;;;;;;;6.63;3.38;;;18.30;99.90;;;;;;5014002;28;20030;-48
2023/07/31 00:19:26;;;;;;;6.65;3.85;;;18.20;99.90;;;;;;5014089;28;20033;-52
2023/07/31 00:22:12;;;;;;;7.28;3.90;;;18.20;99.90;;;;;;5014561;28;20511;-49
2023/07/31 00:24:59;;;;;;;5.78;3.63;;;18.20;99.90;;;;;;5018825;28;20066;-47
2023/07/31 00:27:46;;;;;;;7.53;3.50;;;18.40;99.30;;;;;;5013477;28;20495;-49
2023/07/31 00:30:31;;;;;;;6.60;3.38;;;18.50;99.30;;;;;;5013206;28;20517;-53
2023/07/31 00:33:17;;;;;;;7.88;3.15;;;18.50;98.90;;;;;;5013798;28;20037;-47
2023/07/31 00:36:03;;;;;;;5.20;3.50;;;18.60;98.80;;;;;;5013432;28;20112;-50
2023/07/31 00:38:49;;;;;;;8.30;3.90;;;18.60;98.80;;;;;;5000342;28;20030;-54
2023/07/31 00:41:35;;;;;;;8.43;3.30;;;18.60;98.80;;;;;;5003233;28;20589;-51
2023/07/31 00:44:21;;;;;;;5.75;3.15;;;18.60;98.80;;;;;;5013937;28;20101;-50
2023/07/31 00:47:07;;;;;;;5.75;3.40;;;18.70;98.70;;;;;;5014260;28;20054;-49
2023/07/31 00:49:53;;;;;;;7.53;3.83;;;18.60;99.20;;;;;;5013754;28;20030;-49
2023/07/31 00:52:39;;;;;;;8.52;3.67;;;18.60;98.90;;;;;;5013617;28;20407;-48
2023/07/31 00:55:25;;;;;;;5.93;3.50;;;18.50;99.10;;;;;;5014145;28;20184;-50
2023/07/31 00:58:11;;;;;;;6.28;3.53;;;18.50;99.10;;;;;;5013787;28;20087;-50
2023/07/31 01:00:57;;;;;;;4.97;3.08;;;18.50;99.20;;;;;;5014122;28;20388;-51
2023/07/31 01:03:44;;;;;;;8.05;3.65;;;18.40;99.30;;;;;;5013012;28;20517;-47
2023/07/31 01:06:53;;;;;;;6.40;3.30;;;18.40;99.30;;;;;;5013134;28;20038;-49
2023/07/31 01:10:01;;;;;;;5.28;3.38;;;18.40;99.30;;;;;;5014839;28;20322;-53
2023/07/31 01:12:48;;;;;;;13.10;3.67;;;18.40;99.30;;;;;;5013640;28;20041;-52
2023/07/31 01:15:33;;;;;;;5.43;3.97;;;18.30;99.30;;;;;;4995102;28;20026;-51
2023/07/31 01:18:19;;;;;;;6.93;3.20;;;18.40;99.50;;;;;;5013629;28;20038;-55
2023/07/31 01:21:34;;;;;;;4.63;3.28;;;18.40;99.20;;;;;;5013979;28;20033;-57
2023/07/31 01:24:20;;;;;;;7.95;3.42;;;18.40;99.20;;;;;;4984909;28;20153;-48
2023/07/31 01:27:12;;;;;;;6.30;3.50;;;18.40;99.10;;;;;;5014357;28;20040;-51
2023/07/31 01:30:10;;;;;;;6.15;3.40;;;18.30;99.20;;;;;;5013396;28;20116;-45
2023/07/31 01:32:58;;;;;;;8.80;3.50;;;18.40;99.10;;;;;;5013105;28;20044;-48
2023/07/31 01:35:46;;;;;;;5.93;3.22;;;18.30;99.10;;;;;;5013119;28;20049;-45
2023/07/31 01:38:32;;;;;;;7.40;3.50;;;18.30;99.20;;;;;;5012607;28;20033;-45
2023/07/31 01:41:18;;;;;;;7.97;3.20;;;18.40;99.10;;;;;;5012357;28;20030;-43
2023/07/31 01:44:04;;;;;;;6.80;3.30;;;18.40;99.20;;;;;;5013269;28;20037;-44
2023/07/31 01:46:50;;;;;;;6.35;3.28;;;18.30;99.50;;;;;;5013030;28;20030;-49
2023/07/31 01:49:36;;;;;;;6.18;3.40;;;18.30;99.50;;;;;;5013258;28;20053;-44
2023/07/31 01:52:22;;;;;;;6.90;3.90;;;18.30;99.80;;;;;;5013740;28;20080;-48
2023/07/31 01:55:08;;;;;;;5.65;3.25;;;18.20;99.90;;;;;;5013854;28;20080;-50
2023/07/31 01:57:54;;;;;;;5.28;3.65;;;18.20;99.90;;;;;;5012927;28;20061;-47
2023/07/31 02:00:40;;;;;;;6.80;3.30;;;18.30;99.90;;;;;;5013198;28;20034;-45
2023/07/31 02:03:26;;;;;;;8.00;3.83;;;18.30;99.90;;;;;;5012361;28;20068;-47
2023/07/31 02:06:12;;;;;;;5.30;3.47;;;18.30;99.90;;;;;;5012131;28;20032;-46
2023/07/31 02:08:58;;;;;;;9.77;4.05;;;18.20;99.90;;;;;;5012067;28;20041;-49
2023/07/31 02:11:44;;;;;;;9.32;3.90;;;18.10;99.90;;;;;;5012534;28;20026;-55
2023/07/31 02:14:30;;;;;;;7.57;3.53;;;18.10;99.90;;;;;;5010613;28;20029;-51
2023/07/31 02:17:15;;;;;;;6.45;3.92;;;18.00;99.90;;;;;;5011855;28;20430;-46
2023/07/31 02:20:02;;;;;;;5.97;3.60;;;17.90;99.90;;;;;;5011885;28;20447;-47
2023/07/31 02:22:48;;;;;;;6.63;3.13;;;18.00;99.90;;;;;;5012303;28;20030;-51
2023/07/31 02:25:34;;;;;;;5.88;3.83;;;18.00;99.90;;;;;;5012024;28;20030;-45
2023/07/31 02:28:20;;;;;;;6.55;3.22;;;18.00;99.90;;;;;;4997692;28;20041;-46
2023/07/31 02:31:06;;;;;;;6.18;3.40;;;17.90;99.90;;;;;;4994384;28;20041;-45
2023/07/31 02:33:52;;;;;;;7.03;3.80;;;17.90;99.90;;;;;;4994741;28;20038;-49
2023/07/31 02:36:38;;;;;;;7.53;3.40;;;17.90;99.90;;;;;;5012237;28;20030;-54
2023/07/31 02:39:25;;;;;;;5.85;3.20;;;17.90;99.90;;;;;;5012767;28;20053;-47
2023/07/31 02:42:12;;;;;;;4.68;3.33;;;17.90;99.90;;;;;;5011964;28;20095;-51
2023/07/31 02:44:58;;;;;;;6.00;3.65;;;18.00;99.90;;;;;;5010252;28;20533;-45
2023/07/31 02:47:44;;;;;;;7.57;3.88;;;18.00;99.90;;;;;;5011600;28;20040;-47
2023/07/31 02:50:31;;;;;;;7.22;3.28;;;18.00;99.90;;;;;;5010828;28;20038;-45
2023/07/31 02:53:17;;;;;;;6.18;3.85;;;18.00;99.90;;;;;;5011532;28;20034;-46
2023/07/31 02:56:04;;;;;;;9.23;3.65;;;17.80;99.90;;;;;;5011681;28;20495;-47
2023/07/31 02:58:50;;;;;;;7.85;3.92;;;17.80;99.90;;;;;;5000330;28;20040;-48
2023/07/31 03:01:36;;;;;;;4.85;3.10;;;17.80;99.90;;;;;;5011490;28;20026;-49
2023/07/31 03:04:22;;;;;;;5.47;3.28;;;17.90;99.90;;;;;;5011975;28;20026;-46
2023/07/31 03:07:08;;;;;;;10.23;3.75;;;17.80;99.90;;;;;;5010853;28;20465;-47
2023/07/31 03:09:53;;;;;;;8.68;3.67;;;17.80;99.90;;;;;;5011683;28;20041;-48
2023/07/31 03:12:40;;;;;;;7.20;3.67;;;17.80;99.90;;;;;;5010829;28;20140;-50
2023/07/31 03:15:26;;;;;;;6.63;3.33;;;17.80;99.90;;;;;;5012288;28;20411;-46
2023/07/31 03:18:12;;;;;;;6.80;3.90;;;17.70;99.90;;;;;;5011028;28;20057;-49
2023/07/31 03:20:58;;;;;;;4.95;3.63;;;17.70;99.90;;;;;;5011732;28;20041;-54
2023/07/31 03:23:44;;;;;;;6.95;3.67;;;17.70;99.90;;;;;;5011330;28;20477;-52
2023/07/31 03:26:32;;;;;;;6.18;3.42;;;17.60;99.90;;;;;;5011287;28;20120;-51
2023/07/31 03:29:18;;;;;;;6.05;3.75;;;17.70;99.90;;;;;;5008300;28;20037;-45
2023/07/31 03:32:04;;;;;;;8.30;3.67;;;17.60;99.90;;;;;;5011542;28;20116;-46
2023/07/31 03:34:50;;;;;;;8.10;3.75;;;17.60;99.90;;;;;;5011198;28;20037;-44
2023/07/31 03:37:36;;;;;;;5.03;3.50;;;17.60;99.90;;;;;;5010601;28;20497;-47
2023/07/31 03:40:22;;;;;;;6.90;3.65;;;17.60;99.90;;;;;;5010684;28;20037;-49
2023/07/31 03:43:08;;;;;;;7.72;4.07;;;17.70;99.90;;;;;;5010910;28;20560;-44
2023/07/31 03:45:54;;;;;;;7.38;3.85;;;17.70;99.90;;;;;;5010532;28;20042;-44
2023/07/31 03:48:40;;;;;;;8.80;4.05;;;17.60;99.90;;;;;;5009210;28;20045;-47
2023/07/31 03:51:26;;;;;;;6.47;3.97;;;17.60;99.90;;;;;;5010631;28;20033;-54
2023/07/31 03:54:13;;;;;;;7.97;3.80;;;17.60;99.90;;;;;;5010823;28;20072;-50
2023/07/31 03:56:58;;;;;;;7.43;4.13;;;17.60;99.90;;;;;;5010301;28;20684;-55
2023/07/31 03:59:44;;;;;;;9.63;3.78;;;17.60;99.90;;;;;;5011193;28;20030;-45
2023/07/31 04:02:30;;;;;;;8.30;4.10;;;17.60;99.90;;;;;;5010676;28;20495;-45
2023/07/31 04:05:16;;;;;;;7.03;3.80;;;17.60;99.90;;;;;;5010863;28;20419;-44
2023/07/31 04:08:02;;;;;;;7.63;3.80;;;17.50;99.90;;;;;;5010713;28;20034;-48
2023/07/31 04:10:48;;;;;;;8.05;4.30;;;17.60;99.90;;;;;;5010845;28;20030;-48
2023/07/31 04:13:34;;;;;;;6.70;3.72;;;17.50;99.90;;;;;;5011552;28;20030;-48
2023/07/31 04:16:20;;;;;;;6.35;4.55;;;17.50;99.90;;;;;;4996073;28;20034;-46
2023/07/31 04:19:06;;;;;;;6.40;3.45;;;17.50;99.90;;;;;;5009909;28;20104;-45
2023/07/31 04:21:52;;;;;;;5.15;3.78;;;17.50;99.90;;;;;;5011129;28;20022;-48
2023/07/31 04:24:38;;;;;;;6.75;4.15;;;17.50;99.90;;;;;;5011207;28;20022;-48
2023/07/31 04:27:24;;;;;;;8.10;4.25;;;17.50;99.90;;;;;;5010027;28;20076;-52
2023/07/31 04:30:10;;;;;;;5.43;3.65;;;17.50;99.90;;;;;;4991844;28;20125;-49
2023/07/31 04:32:56;;;;;;;6.65;4.13;;;17.40;99.90;;;;;;5010569;28;20455;-50
2023/07/31 04:35:48;;;;;;;8.85;4.07;;;17.40;99.90;;;;;;5010063;28;20049;-51
2023/07/31 04:38:33;;;;;;;6.40;3.97;;;17.40;99.90;;;;;;5010169;28;20034;-46
2023/07/31 04:41:19;;;;;;;7.18;3.95;;;17.40;99.90;;;;;;5010873;28;20026;-45
2023/07/31 04:44:05;;;;;;;6.05;4.00;;;17.40;99.90;;;;;;5009953;28;20030;-48
2023/07/31 04:46:51;;;;;;;7.47;4.32;;;17.50;99.90;;;;;;5008559;28;20030;-46
2023/07/31 04:49:37;;;;;;;10.82;4.45;;;17.40;99.90;;;;;;4996191;28;20058;-45
2023/07/31 04:52:23;;;;;;;6.95;4.05;;;17.30;99.90;;;;;;5009291;28;20100;-44
2023/07/31 04:55:09;;;;;;;7.55;3.90;;;17.30;99.90;;;;;;5010726;28;20030;-45
2023/07/31 04:57:55;;;;;;;8.93;4.25;;;17.40;99.90;;;;;;4998365;28;20121;-45
2023/07/31 05:00:41;;;;;;;10.57;4.50;;;17.40;99.90;;;;;;5013913;28;20032;-48
2023/07/31 05:03:27;;;;;;;8.13;4.32;;;17.30;99.90;;;;;;5000490;28;20022;-50
2023/07/31 05:06:15;;;;;;;6.63;3.83;;;17.30;99.90;;;;;;5013218;28;20494;-51
2023/07/31 05:09:01;;;;;;;9.07;4.78;;;17.30;99.90;;;;;;5013065;28;20038;-44
2023/07/31 05:11:47;;;;;;;7.88;4.35;;;17.20;99.90;;;;;;5013355;28;20033;-47
2023/07/31 05:14:33;;;;;;;6.32;4.22;;;17.30;99.90;;;;;;5014029;28;20025;-52
2023/07/31 05:17:18;;;;;;;5.43;4.22;;;17.30;99.90;;;;;;5002809;28;20029;-49
2023/07/31 05:20:05;;;;;;;7.38;4.65;;;17.20;99.90;;;;;;4994326;28;20026;-45
2023/07/31 05:22:52;;;;;;;9.07;4.88;;;17.20;99.90;;;;;;4993536;28;20113;-45
2023/07/31 05:25:38;;;;;;;7.95;4.45;;;17.20;99.90;;;;;;5013528;28;20040;-53
2023/07/31 05:28:23;;;;;;;8.55;4.70;;;17.10;99.90;;;;;;5013391;28;20454;-52
2023/07/31 05:31:09;;;;;;;7.72;4.78;;;17.10;99.90;;;;;;5013338;28;20726;-46
2023/07/31 05:33:55;;;;;;;9.05;4.30;;;17.10;99.90;;;;;;5011291;28;20499;-51
2023/07/31 05:36:41;;;;;;;6.28;4.50;;;17.10;99.90;;;;;;5013391;28;20387;-45
2023/07/31 05:39:27;;;;;;;10.65;4.55;;;17.10;99.90;;;;;;5013647;28;20057;-45
2023/07/31 05:42:13;;;;;;;8.50;4.75;;;17.10;99.90;;;;;;5012676;28;20513;-47
2023/07/31 05:44:59;;;;;;;7.28;4.32;;;17.20;99.90;;;;;;5012830;28;20561;-45
2023/07/31 05:47:45;;;;;;;5.75;4.18;;;17.20;99.90;;;;;;5012207;28;20030;-47
2023/07/31 05:50:31;;;;;;;7.18;5.05;;;17.20;99.90;;;;;;5012594;28;20576;-50
2023/07/31 05:53:17;;;;;;;7.88;4.35;;;17.30;99.90;;;;;;5012986;28;20133;-45
2023/07/31 05:56:03;;;;;;;10.35;4.60;;;17.20;99.90;;;;;;5012998;28;20121;-51
2023/07/31 05:58:50;;;;;;;8.10;4.53;;;17.30;99.90;;;;;;4999251;28;20022;-51
2023/07/31 06:01:36;;;;;;;6.32;4.30;;;17.30;99.90;;;;;;5013658;28;20072;-49
2023/07/31 06:04:23;;;;;;;6.25;4.45;;;17.30;99.90;;;;;;5012645;28;20695;-51
2023/07/31 06:07:10;;;;;;;8.05;4.22;;;17.40;99.90;;;;;;5012089;28;20030;-51
2023/07/31 06:09:57;;;;;;;8.98;5.18;;;17.40;99.90;;;;;;5012322;28;20030;-49
2023/07/31 06:12:43;;;;;;;7.65;4.22;;;17.40;99.90;;;;;;5011479;28;20462;-50
2023/07/31 06:15:29;;;;;;;7.60;4.47;;;17.50;99.90;;;;;;5022893;28;20026;-51
2023/07/31 06:18:15;;;;;;;6.65;4.07;;;17.50;99.90;;;;;;5012216;28;20045;-47
2023/07/31 06:21:01;;;;;;;8.88;4.50;;;17.60;99.90;;;;;;5012652;28;20026;-54
2023/07/31 06:23:47;;;;;;;6.47;4.32;;;17.60;99.90;;;;;;5011984;28;20062;-48
2023/07/31 06:26:33;;;;;;;6.18;4.38;;;17.60;99.90;;;;;;5011203;28;20026;-47
2023/07/31 06:29:18;;;;;;;9.40;5.50;;;17.70;99.90;;;;;;5011807;28;20033;-48
2023/07/31 06:32:05;;;;;;;7.97;4.50;;;17.60;99.90;;;;;;5011606;28;20499;-52
2023/07/31 06:34:51;;;;;;;7.95;4.35;;;17.60;99.90;;;;;;5011553;28;20033;-50
2023/07/31 06:37:39;;;;;;;7.63;4.18;;;17.70;99.90;;;;;;5011150;28;20080;-57
2023/07/31 06:40:25;;;;;;;7.97;4.68;;;17.70;99.90;;;;;;5006509;28;20133;-50
2023/07/31 06:43:11;;;;;;;9.52;4.30;;;17.70;99.90;;;;;;5011891;28;20038;-50
2023/07/31 06:46:00;;;;;;;7.75;4.20;;;17.80;99.90;;;;;;5012351;28;20088;-51
2023/07/31 06:48:46;;;;;;;9.65;4.50;;;17.90;99.90;;;;;;5011800;28;20427;-47
2023/07/31 06:51:31;;;;;;;7.80;4.43;;;18.00;99.90;;;;;;5011559;28;20026;-48
2023/07/31 06:54:17;;;;;;;7.05;4.55;;;18.00;99.90;;;;;;5011443;28;20057;-52
2023/07/31 06:57:04;;;;;;;9.10;4.40;;;18.00;99.90;;;;;;5011520;28;20057;-58
2023/07/31 06:59:49;;;;;;;6.22;4.40;;;18.10;99.90;;;;;;5010934;28;20087;-55
2023/07/31 07:02:35;;;;;;;7.00;4.10;;;18.20;99.90;;;;;;5011977;28;20084;-54
2023/07/31 07:05:21;;;;;;;5.90;4.05;;;18.10;99.90;;;;;;5011559;28;20052;-52
2023/07/31 07:08:07;;;;;;;8.40;4.50;;;18.30;99.90;;;;;;4998235;28;20495;-56
2023/07/31 07:10:53;;;;;;;9.20;4.97;;;18.30;99.90;;;;;;5012019;28;20113;-57
2023/07/31 07:13:39;;;;;;;9.48;4.85;;;18.30;99.90;;;;;;5011681;28;20172;-57
2023/07/31 07:16:25;;;;;;;7.22;4.60;;;18.50;99.90;;;;;;5013590;28;20161;-53
2023/07/31 07:19:11;;;;;;;7.35;4.00;;;18.50;99.90;;;;;;5011367;28;20065;-49
2023/07/31 07:21:59;;;;;;;7.68;4.65;;;18.60;99.90;;;;;;5009892;28;20084;-54
2023/07/31 07:24:45;;;;;;;8.13;4.57;;;18.60;99.90;;;;;;5001486;28;20044;-55
2023/07/31 07:27:31;;;;;;;5.68;4.18;;;18.50;99.90;;;;;;5010881;28;20033;-52
2023/07/31 07:30:17;;;;;;;8.48;4.18;;;18.60;99.90;;;;;;5008011;28;20034;-54
2023/07/31 07:33:03;;;;;;;10.38;4.32;;;18.60;99.90;;;;;;5008162;28;20053;-53
2023/07/31 07:35:49;;;;;;;8.02;4.13;;;18.60;99.90;;;;;;5010869;28;20030;-51
2023/07/31 07:38:36;;;;;;;9.45;4.47;;;18.60;99.90;;;;;;5005695;28;20022;-49
2023/07/31 07:41:21;;;;;;;6.28;4.20;;;18.60;99.90;;;;;;5010311;28;20495;-53
2023/07/31 07:44:08;;;;;;;6.47;3.80;;;18.60;99.90;;;;;;5012431;28;20539;-53
2023/07/31 07:46:54;;;;;;;6.25;4.05;;;18.60;99.90;;;;;;5011329;28;20036;-49
2023/07/31 07:49:40;;;;;;;4.97;3.90;;;18.70;99.90;;;;;;5009562;28;20033;-51
2023/07/31 07:52:26;;;;;;;5.25;3.90;;;18.70;99.90;;;;;;4991256;28;20569;-56
2023/07/31 07:55:12;;;;;;;5.90;4.00;;;18.70;99.90;;;;;;4991109;28;20034;-51
2023/07/31 07:57:58;;;;;;;8.13;4.07;;;18.80;99.90;;;;;;4991340;28;20615;-57
2023/07/31 08:00:50;;;;;;;7.03;4.35;;;18.80;99.90;;;;;;5011189;28;20065;-54
2023/07/31 08:03:36;;;;;;;8.48;3.92;;;18.80;99.90;;;;;;5008285;28;20080;-50
2023/07/31 08:06:22;;;;;;;7.47;4.10;;;18.90;99.90;;;;;;5008440;28;20033;-49
2023/07/31 08:09:08;;;;;;;10.25;4.05;;;18.90;99.90;;;;;;5002266;28;20040;-50
2023/07/31 08:11:57;;;;;;;8.18;4.45;;;18.90;99.90;;;;;;5010010;28;20522;-53
2023/07/31 08:14:43;;;;;;;8.15;4.60;;;19.00;99.90;;;;;;5006067;28;20069;-50
2023/07/31 08:17:28;;;;;;;6.53;4.47;;;19.00;99.90;;;;;;5008899;28;20598;-51
2023/07/31 08:20:15;;;;;;;5.97;4.93;;;19.00;99.90;;;;;;5010354;28;20030;-51
2023/07/31 08:23:01;;;;;;;13.75;5.22;;;19.10;99.90;;;;;;5009482;28;20088;-53
2023/07/31 08:25:46;;;;;;;6.70;4.25;;;19.10;99.90;;;;;;5008754;28;20542;-51
2023/07/31 08:28:32;;;;;;;7.03;4.22;;;19.20;99.90;;;;;;5000712;28;20517;-50
2023/07/31 08:31:19;;;;;;;6.63;4.40;;;19.20;99.90;;;;;;4999273;28;20395;-50
2023/07/31 08:34:05;;;;;;;7.75;4.60;;;19.40;99.90;;;;;;5013101;28;20080;-47
2023/07/31 08:36:51;;;;;;;8.70;4.43;;;19.40;99.90;;;;;;5014582;28;20749;-53
2023/07/31 08:39:39;;;;;;;6.80;4.30;;;19.50;99.90;;;;;;5016948;28;20026;-49
2023/07/31 08:42:25;;;;;;;7.00;4.63;;;19.50;99.90;;;;;;5014462;28;20022;-54
2023/07/31 08:45:19;;;;;;;8.55;4.55;;;19.50;99.90;;;;;;5008234;28;20030;-54
2023/07/31 08:48:05;;;;;;;7.60;4.53;;;19.50;99.90;;;;;;5011614;28;20479;-51
2023/07/31 08:50:53;;;;;;;6.80;4.38;;;19.30;99.90;;;;;;5012696;28;20037;-54
2023/07/31 08:53:39;;;;;;;8.25;4.78;;;19.30;99.90;;;;;;5004112;28;20084;-45
2023/07/31 08:56:26;;;;;;;8.35;4.75;;;19.20;99.90;;;;;;5013719;28;20589;-50
2023/07/31 08:59:15;;;;;;;7.80;4.30;;;19.00;99.90;;;;;;5013251;28;20486;-44
2023/07/31 09:02:06;;;;;;;6.95;4.50;;;18.70;99.90;;;;;;5013717;28;20037;-44
2023/07/31 09:04:52;;;;;;;7.85;4.57;;;18.60;99.90;;;;;;5014416;28;20029;-50
2023/07/31 09:07:40;;;;;;;8.02;5.00;;;18.70;99.90;;;;;;5013519;28;20029;-48
2023/07/31 09:10:26;;;;;;;7.05;4.22;;;18.60;99.90;;;;;;5013229;28;20034;-52
2023/07/31 09:13:13;;;;;;;9.57;4.93;;;18.60;99.90;;;;;;5013675;28;20037;-59
2023/07/31 09:15:59;;;;;;;7.75;4.53;;;18.60;99.90;;;;;;5013896;28;20036;-52
2023/07/31 09:18:56;;;;;;;7.47;4.65;;;18.70;99.90;;;;;;4980167;28;20026;-51
2023/07/31 09:21:48;;;;;;;6.75;4.57;;;18.80;99.90;;;;;;5004700;28;20120;-46
2023/07/31 09:24:34;;;;;;;6.13;4.57;;;19.00;99.90;;;;;;5013962;28;20030;-49
2023/07/31 09:27:20;;;;;;;7.28;4.45;;;19.00;99.90;;;;;;5013082;28;20048;-52
2023/07/31 09:30:07;;;;;;;7.13;4.60;;;19.00;99.90;;;;;;5013598;28;20041;-46
2023/07/31 09:33:07;;;;;;;8.60;5.15;;;19.10;99.90;;;;;;5013721;28;20113;-53
2023/07/31 09:35:53;;;;;;;6.65;4.68;;;19.20;99.90;;;;;;5013692;28;20064;-51
2023/07/31 09:38:39;;;;;;;7.35;4.65;;;19.20;99.90;;;;;;5013525;28;20022;-47
2023/07/31 09:41:25;;;;;;;7.07;4.75;;;19.30;99.90;;;;;;5013643;28;20041;-46
2023/07/31 09:44:11;;;;;;;10.95;4.95;;;19.40;99.90;;;;;;5012319;28;20576;-54
2023/07/31 09:46:57;;;;;;;6.40;4.60;;;19.40;99.90;;;;;;5011372;28;20038;-45
2023/07/31 09:49:46;;;;;;;10.45;5.45;;;19.50;99.90;;;;;;5013150;28;20041;-45
2023/07/31 09:52:31;;;;;;;7.32;4.50;;;19.60;99.90;;;;;;5013304;28;20030;-48
2023/07/31 09:55:18;;;;;;;6.43;4.47;;;19.80;99.90;;;;;;5012418;28;20036;-51
2023/07/31 09:58:06;;;;;;;6.13;4.63;;;19.90;99.90;;;;;;5012223;28;20022;-52
2023/07/31 10:00:52;;;;;;;5.85;4.43;;;20.00;99.90;;;;;;5012724;28;20030;-47
2023/07/31 10:03:39;;;;;;;10.10;4.80;;;20.00;99.90;;;;;;5012459;28;20037;-47
2023/07/31 10:06:26;;;;;;;8.00;4.63;;;20.20;99.90;;;;;;5009405;28;20108;-46
2023/07/31 10:09:15;;;;;;;7.93;4.82;;;20.20;99.90;;;;;;5010452;28;20030;-48
2023/07/31 10:12:06;;;;;;;9.02;4.72;;;20.00;99.90;;;;;;5012290;28;20018;-46
2023/07/31 10:14:54;;;;;;;6.93;4.72;;;20.00;99.90;;;;;;5011810;28;20030;-44
2023/07/31 10:17:41;;;;;;;6.75;4.60;;;20.00;99.90;;;;;;5009032;28;20025;-52
2023/07/31 10:20:29;;;;;;;9.45;4.88;;;20.00;99.90;;;;;;5011750;28;20073;-48
2023/07/31 10:23:16;;;;;;;7.38;4.10;;;20.10;99.90;;;;;;5013011;28;20049;-49
2023/07/31 10:26:03;;;;;;;5.95;4.60;;;20.30;99.90;;;;;;5010734;28;20034;-47
2023/07/31 10:28:51;;;;;;;7.63;5.18;;;20.30;99.90;;;;;;5013891;28;20026;-50
2023/07/31 10:31:37;;;;;;;7.82;4.65;;;20.30;99.90;;;;;;5015856;28;20029;-48
2023/07/31 10:34:24;;;;;;;5.40;4.40;;;20.40;99.90;;;;;;5011874;28;20100;-48
2023/07/31 10:37:23;;;;;;;6.50;4.68;;;20.60;99.90;;;;;;5002222;28;20038;-51
2023/07/31 10:40:17;;;;;;;8.13;5.32;;;20.60;99.90;;;;;;5011959;28;20022;-50
2023/07/31 10:43:03;;;;;;;6.85;4.13;;;20.70;99.90;;;;;;5009136;28;20022;-45
2023/07/31 10:45:49;;;;;;;6.43;4.70;;;20.70;99.90;;;;;;5010189;28;20033;-47
2023/07/31 10:48:36;;;;;;;10.10;4.82;;;20.70;99.90;;;;;;5020786;28;20072;-51
2023/07/31 10:51:22;;;;;;;5.13;4.50;;;20.70;99.90;;;;;;5010080;28;20030;-47
2023/07/31 10:54:14;;;;;;;7.00;4.68;;;20.80;99.90;;;;;;5009401;28;20570;-52
2023/07/31 10:57:00;;;;;;;6.85;4.70;;;20.90;99.90;;;;;;5005166;28;20057;-46
2023/07/31 10:59:46;;;;;;;6.07;4.10;;;20.90;99.90;;;;;;5006303;28;20402;-47
2023/07/31 11:02:33;;;;;;;6.10;4.60;;;20.90;99.90;;;;;;5000864;28;20065;-52
2023/07/31 11:05:22;;;;;;;7.45;5.15;;;20.90;99.90;;;;;;5007507;28;20483;-57
2023/07/31 11:08:29;;;;;;;6.80;4.43;;;20.90;99.90;;;;;;5008131;28;20033;-52
2023/07/31 11:11:17;;;;;;;6.78;4.78;;;20.80;99.90;;;;;;5007542;28;20037;-49
2023/07/31 11:14:03;;;;;;;5.53;4.63;;;20.80;99.90;;;;;;5008561;28;20038;-53
2023/07/31 11:16:52;;;;;;;7.53;4.70;;;20.70;99.90;;;;;;5011939;28;20033;-52
2023/07/31 11:19:38;;;;;;;6.40;4.47;;;20.70;99.90;;;;;;4994487;28;20030;-49
2023/07/31 11:22:24;;;;;;;7.63;5.65;;;20.80;99.90;;;;;;5003562;28;20108;-52
2023/07/31 11:25:10;;;;;;;7.60;4.82;;;20.60;99.90;;;;;;5010339;28;20054;-57
2023/07/31 11:27:57;;;;;;;7.53;4.82;;;20.60;99.90;;;;;;5009517;28;20399;-54
2023/07/31 11:30:44;;;;;;;9.60;4.63;;;20.70;99.90;;;;;;5015305;28;20034;-56
2023/07/31 11:33:30;;;;;;;9.25;5.07;;;20.80;99.90;;;;;;5023379;28;20117;-55
2023/07/31 11:36:18;;;;;;;5.65;4.70;;;20.80;99.90;;;;;;5029585;28;20112;-55
2023/07/31 11:39:08;;;;;;;5.35;4.55;;;20.90;99.90;;;;;;5029660;28;20026;-52
2023/07/31 11:41:59;;;;;;;7.68;4.80;;;20.90;99.70;;;;;;5012367;28;20043;-52
2023/07/31 11:44:47;;;;;;;8.70;4.15;;;21.00;99.90;;;;;;5007916;28;20033;-57
2023/07/31 11:47:34;;;;;;;8.57;5.28;;;21.00;99.20;;;;;;5008837;28;20034;-51
2023/07/31 11:50:20;;;;;;;8.20;4.88;;;21.00;99.70;;;;;;5009830;28;20038;-55
2023/07/31 11:53:09;;;;;;;8.55;4.95;;;20.90;99.90;;;;;;4999432;28;20030;-57
2023/07/31 11:55:57;;;;;;;7.55;5.07;;;20.90;99.90;;;;;;5016208;28;20053;-55
2023/07/31 11:58:48;;;;;;;9.13;5.40;;;20.90;99.50;;;;;;5005205;28;20038;-57
2023/07/31 12:01:34;;;;;;;7.88;4.93;;;20.80;99.30;;;;;;5010322;28;20026;-56
2023/07/31 12:04:21;;;;;;;7.68;5.22;;;20.80;99.60;;;;;;5010219;28;20033;-54
2023/07/31 12:07:07;;;;;;;7.00;5.13;;;20.90;99.80;;;;;;5013251;28;20044;-56
2023/07/31 12:09:54;;;;;;;8.25;5.25;;;20.90;99.70;;;;;;5010404;28;20030;-56
2023/07/31 12:12:40;;;;;;;8.73;4.82;;;21.10;99.30;;;;;;5008200;28;20080;-52
2023/07/31 12:15:33;;;;;;;9.63;5.07;;;21.40;99.00;;;;;;5008505;28;20590;-54
2023/07/31 12:18:20;;;;;;;8.43;5.10;;;21.60;98.60;;;;;;5013026;28;20022;-57
2023/07/31 12:21:07;;;;;;;11.05;5.45;;;21.80;98.30;;;;;;5013000;28;20041;-57
2023/07/31 12:23:53;;;;;;;7.35;5.35;;;22.00;97.90;;;;;;5014158;28;20034;-45
2023/07/31 12:26:39;;;;;;;7.05;5.03;;;22.20;97.50;;;;;;5014203;28;20034;-46
2023/07/31 12:29:35;;;;;;;9.45;5.47;;;22.00;97.90;;;;;;5014025;28;20026;-49
2023/07/31 12:32:23;;;;;;;8.30;4.95;;;22.00;98.00;;;;;;5014502;28;20029;-46
2023/07/31 12:35:09;;;;;;;6.53;4.90;;;21.90;97.70;;;;;;5014490;28;20152;-49
2023/07/31 12:38:01;;;;;;;7.60;4.65;;;21.80;97.60;;;;;;5030718;28;20048;-45
2023/07/31 12:40:47;;;;;;;8.88;5.55;;;21.70;97.90;;;;;;5034440;28;20034;-46
2023/07/31 12:43:34;;;;;;;7.28;4.97;;;21.60;98.20;;;;;;5033707;28;20525;-48
2023/07/31 12:46:20;;;;;;;6.90;4.95;;;21.70;98.20;;;;;;5019838;28;20037;-52
2023/07/31 12:49:06;;;;;;;7.20;5.40;;;21.80;98.10;;;;;;5006423;28;20026;-50
2023/07/31 12:51:53;;;;;;;9.25;5.22;;;21.80;98.00;;;;;;5013540;28;20076;-54
2023/07/31 12:54:39;;;;;;;7.93;4.90;;;21.80;98.10;;;;;;5004992;28;20033;-52
2023/07/31 12:57:25;;;;;;;6.07;4.57;;;22.00;98.00;;;;;;5013270;28;20056;-52
2023/07/31 13:00:12;;;;;;;5.85;4.65;;;22.00;97.90;;;;;;5013801;28;20493;-50
2023/07/31 13:03:00;;;;;;;7.18;4.72;;;22.10;97.30;;;;;;4999806;28;20026;-51
2023/07/31 13:05:46;;;;;;;5.65;4.40;;;22.10;97.20;;;;;;5014321;28;20022;-55
2023/07/31 13:08:32;;;;;;;6.15;4.45;;;22.30;96.80;;;;;;5012689;28;20034;-52
2023/07/31 13:11:18;;;;;;;5.72;4.35;;;22.30;96.20;;;;;;5013314;28;20456;-53
2023/07/31 13:14:04;;;;;;;7.10;4.68;;;22.20;96.50;;;;;;5013313;28;20570;-46
2023/07/31 13:16:49;;;;;;;9.20;4.43;;;22.20;96.50;;;;;;5023555;28;20044;-50
2023/07/31 13:19:35;;;;;;;7.50;4.85;;;22.00;96.70;;;;;;5033237;28;20033;-49
2023/07/31 13:22:21;;;;;;;6.53;5.00;;;21.90;96.90;;;;;;5026240;28;20402;-47
2023/07/31 13:25:08;;;;;;;6.75;4.55;;;22.00;96.90;;;;;;5013371;28;20494;-50
2023/07/31 13:27:53;;;;;;;6.25;5.03;;;22.00;97.00;;;;;;5013103;28;20036;-53
2023/07/31 13:30:39;;;;;;;7.20;4.65;;;22.00;97.50;;;;;;5012407;28;20026;-51
2023/07/31 13:33:25;;;;;;;7.65;4.55;;;22.00;96.90;;;;;;4999522;28;20464;-49
2023/07/31 13:36:13;;;;;;;7.53;4.22;;;22.00;96.70;;;;;;4995126;28;20510;-51
2023/07/31 13:39:00;;;;;;;6.82;4.50;;;22.00;97.00;;;;;;5013424;28;20037;-50
2023/07/31 13:41:46;;;;;;;5.40;4.13;;;22.00;96.90;;;;;;5013559;28;20113;-50
2023/07/31 13:44:32;;;;;;;7.40;4.38;;;22.00;97.00;;;;;;5013623;28;20040;-55
2023/07/31 13:47:18;;;;;;;6.13;4.43;;;22.20;96.80;;;;;;5013661;28;20026;-50
2023/07/31 13:50:04;;;;;;;6.18;4.32;;;22.50;96.50;;;;;;5012172;28;20502;-53
2023/07/31 13:52:50;;;;;;;6.25;4.63;;;22.40;96.50;;;;;;5011985;28;20534;-51
2023/07/31 13:55:36;;;;;;;9.43;4.70;;;22.30;96.50;;;;;;5013292;28;20025;-51
2023/07/31 13:58:23;;;;;;;7.80;4.65;;;22.20;97.10;;;;;;5012454;28;20506;-55
2023/07/31 14:01:09;;;;;;;6.70;4.65;;;22.30;97.00;;;;;;5011769;28;20041;-50
2023/07/31 14:03:55;;;;;;;9.18;4.97;;;22.40;96.80;;;;;;4999812;28;20105;-55
2023/07/31 14:06:41;;;;;;;6.75;4.85;;;22.40;96.60;;;;;;5012416;28;20168;-50
2023/07/31 14:09:28;;;;;;;10.23;4.63;;;22.50;96.80;;;;;;4998776;28;20033;-50
2023/07/31 14:12:14;;;;;;;5.30;4.35;;;22.30;96.70;;;;;;5012440;28;20584;-51
2023/07/31 14:15:00;;;;;;;7.25;4.63;;;22.00;97.10;;;;;;5011917;28;20061;-55
2023/07/31 14:17:46;;;;;;;6.18;4.07;;;22.00;97.50;;;;;;5031145;28;20410;-51
2023/07/31 14:20:32;;;;;;;6.07;4.13;;;21.80;97.10;;;;;;5012287;28;20032;-51
2023/07/31 14:23:19;;;;;;;5.18;4.03;;;21.80;97.30;;;;;;5011680;28;20026;-54
2023/07/31 14:26:05;;;;;;;5.28;3.88;;;21.80;97.20;;;;;;5012160;28;20041;-53